sensor_id;sensor_type;location;lat;lon;timestamp;temperature;humidity
75387;DHT22;63966;47.914;22.266;2023-07-08T00:00:28;16.28;73.55
75387;DHT22;63966;47.914;22.266;2023-07-08T00:03:31;16.25;73.78
75387;DHT22;63966;47.914;22.266;2023-07-08T00:06:36;16.15;74.08
75387;DHT22;63966;47.914;22.266;2023-07-08T00:09:39;16.14;74.22
75387;DHT22;63966;47.914;22.266;2023-07-08T00:12:44;16.12;74.25
75387;DHT22;63966;47.914;22.266;2023-07-08T00:15:49;16.12;74.29
75387;DHT22;63966;47.914;22.266;2023-07-08T00:18:52;16.11;74.51
75387;DHT22;63966;47.914;22.266;2023-07-08T00:21:55;16.01;75.13
75387;DHT22;63966;47.914;22.266;2023-07-08T00:24:59;15.93;75.81
75387;DHT22;63966;47.914;22.266;2023-07-08T00:28:04;15.81;76.22
75387;DHT22;63966;47.914;22.266;2023-07-08T00:31:10;15.76;76.47
75387;DHT22;63966;47.914;22.266;2023-07-08T00:34:13;15.69;76.89
75387;DHT22;63966;47.914;22.266;2023-07-08T00:37:20;15.54;77.42
75387;DHT22;63966;47.914;22.266;2023-07-08T00:40:23;15.44;78.01
75387;DHT22;63966;47.914;22.266;2023-07-08T00:43:51;15.35;78.21
75387;DHT22;63966;47.914;22.266;2023-07-08T00:47:03;15.40;77.92
75387;DHT22;63966;47.914;22.266;2023-07-08T00:50:09;15.44;77.72
75387;DHT22;63966;47.914;22.266;2023-07-08T00:53:33;15.50;77.45
75387;DHT22;63966;47.914;22.266;2023-07-08T00:56:51;15.52;77.59
75387;DHT22;63966;47.914;22.266;2023-07-08T01:03:02;15.46;77.55
75387;DHT22;63966;47.914;22.266;2023-07-08T01:06:06;15.47;77.59
75387;DHT22;63966;47.914;22.266;2023-07-08T01:09:12;15.38;78.02
75387;DHT22;63966;47.914;22.266;2023-07-08T01:12:21;15.39;78.07
75387;DHT22;63966;47.914;22.266;2023-07-08T01:15:31;15.39;78.08
75387;DHT22;63966;47.914;22.266;2023-07-08T01:18:36;15.38;78.03
75387;DHT22;63966;47.914;22.266;2023-07-08T01:22:07;15.36;78.08
75387;DHT22;63966;47.914;22.266;2023-07-08T01:25:12;15.33;78.27
75387;DHT22;63966;47.914;22.266;2023-07-08T01:28:17;15.35;78.07
75387;DHT22;63966;47.914;22.266;2023-07-08T01:31:22;15.38;77.81
75387;DHT22;63966;47.914;22.266;2023-07-08T01:34:25;15.47;77.70
75387;DHT22;63966;47.914;22.266;2023-07-08T01:37:38;15.40;77.96
75387;DHT22;63966;47.914;22.266;2023-07-08T01:40:51;15.36;78.23
75387;DHT22;63966;47.914;22.266;2023-07-08T01:43:55;15.43;78.07
75387;DHT22;63966;47.914;22.266;2023-07-08T01:47:19;15.47;77.78
75387;DHT22;63966;47.914;22.266;2023-07-08T01:50:25;15.47;77.84
75387;DHT22;63966;47.914;22.266;2023-07-08T01:53:38;15.50;77.74
75387;DHT22;63966;47.914;22.266;2023-07-08T01:56:43;15.54;78.06
75387;DHT22;63966;47.914;22.266;2023-07-08T01:59:46;15.44;78.28
75387;DHT22;63966;47.914;22.266;2023-07-08T02:02:51;15.36;78.47
75387;DHT22;63966;47.914;22.266;2023-07-08T02:05:55;15.36;78.49
75387;DHT22;63966;47.914;22.266;2023-07-08T02:08:58;15.31;78.69
75387;DHT22;63966;47.914;22.266;2023-07-08T02:12:02;15.31;78.70
75387;DHT22;63966;47.914;22.266;2023-07-08T02:15:07;15.29;78.72
75387;DHT22;63966;47.914;22.266;2023-07-08T02:18:11;15.25;78.96
75387;DHT22;63966;47.914;22.266;2023-07-08T02:21:15;15.13;79.11
75387;DHT22;63966;47.914;22.266;2023-07-08T02:24:21;15.06;79.43
75387;DHT22;63966;47.914;22.266;2023-07-08T02:27:25;15.09;79.30
75387;DHT22;63966;47.914;22.266;2023-07-08T02:30:28;15.06;79.15
75387;DHT22;63966;47.914;22.266;2023-07-08T02:33:32;15.08;79.03
75387;DHT22;63966;47.914;22.266;2023-07-08T02:36:36;15.09;78.76
75387;DHT22;63966;47.914;22.266;2023-07-08T02:39:41;15.09;78.58
75387;DHT22;63966;47.914;22.266;2023-07-08T02:42:45;15.06;78.53
75387;DHT22;63966;47.914;22.266;2023-07-08T02:45:52;15.08;78.41
75387;DHT22;63966;47.914;22.266;2023-07-08T02:48:56;15.09;78.26
75387;DHT22;63966;47.914;22.266;2023-07-08T02:51:59;15.09;78.07
75387;DHT22;63966;47.914;22.266;2023-07-08T02:55:03;15.11;77.70
75387;DHT22;63966;47.914;22.266;2023-07-08T02:58:07;15.13;77.53
75387;DHT22;63966;47.914;22.266;2023-07-08T03:01:10;15.18;77.25
75387;DHT22;63966;47.914;22.266;2023-07-08T03:04:14;15.19;77.14
75387;DHT22;63966;47.914;22.266;2023-07-08T03:07:17;15.23;76.98
75387;DHT22;63966;47.914;22.266;2023-07-08T03:10:21;15.22;76.95
75387;DHT22;63966;47.914;22.266;2023-07-08T03:13:25;15.25;76.56
75387;DHT22;63966;47.914;22.266;2023-07-08T03:16:29;15.31;76.40
75387;DHT22;63966;47.914;22.266;2023-07-08T03:19:33;15.42;76.05
75387;DHT22;63966;47.914;22.266;2023-07-08T03:22:37;15.42;76.01
75387;DHT22;63966;47.914;22.266;2023-07-08T03:25:41;15.39;76.05
75387;DHT22;63966;47.914;22.266;2023-07-08T03:28:47;15.43;76.12
75387;DHT22;63966;47.914;22.266;2023-07-08T03:31:51;15.47;75.70
75387;DHT22;63966;47.914;22.266;2023-07-08T03:34:55;15.59;75.51
75387;DHT22;63966;47.914;22.266;2023-07-08T03:37:58;15.67;75.11
75387;DHT22;63966;47.914;22.266;2023-07-08T03:41:02;15.77;74.80
75387;DHT22;63966;47.914;22.266;2023-07-08T03:44:05;15.89;74.34
75387;DHT22;63966;47.914;22.266;2023-07-08T03:47:08;16.02;74.06
75387;DHT22;63966;47.914;22.266;2023-07-08T03:50:23;16.18;73.66
75387;DHT22;63966;47.914;22.266;2023-07-08T03:53:27;16.28;73.43
75387;DHT22;63966;47.914;22.266;2023-07-08T03:56:31;16.44;73.00
75387;DHT22;63966;47.914;22.266;2023-07-08T03:59:34;16.91;71.76
75387;DHT22;63966;47.914;22.266;2023-07-08T04:02:43;17.44;69.87
75387;DHT22;63966;47.914;22.266;2023-07-08T04:05:52;17.02;70.97
75387;DHT22;63966;47.914;22.266;2023-07-08T04:08:55;16.81;71.91
75387;DHT22;63966;47.914;22.266;2023-07-08T04:11:59;16.60;72.08
75387;DHT22;63966;47.914;22.266;2023-07-08T04:15:03;16.62;72.55
75387;DHT22;63966;47.914;22.266;2023-07-08T04:18:07;16.53;73.00
75387;DHT22;63966;47.914;22.266;2023-07-08T04:21:10;16.57;73.01
75387;DHT22;63966;47.914;22.266;2023-07-08T04:24:17;16.77;72.28
75387;DHT22;63966;47.914;22.266;2023-07-08T04:27:21;17.00;71.39
75387;DHT22;63966;47.914;22.266;2023-07-08T04:30:26;17.18;70.83
75387;DHT22;63966;47.914;22.266;2023-07-08T04:33:29;17.87;68.95
75387;DHT22;63966;47.914;22.266;2023-07-08T04:36:33;18.52;66.07
75387;DHT22;63966;47.914;22.266;2023-07-08T04:39:37;18.75;65.79
75387;DHT22;63966;47.914;22.266;2023-07-08T04:42:40;18.79;64.68
75387;DHT22;63966;47.914;22.266;2023-07-08T04:45:52;18.65;65.08
75387;DHT22;63966;47.914;22.266;2023-07-08T04:48:56;18.48;65.34
75387;DHT22;63966;47.914;22.266;2023-07-08T04:52:03;18.86;64.64
75387;DHT22;63966;47.914;22.266;2023-07-08T04:55:08;19.40;62.76
75387;DHT22;63966;47.914;22.266;2023-07-08T04:58:12;19.44;62.71
75387;DHT22;63966;47.914;22.266;2023-07-08T05:01:16;19.98;61.43
75387;DHT22;63966;47.914;22.266;2023-07-08T05:04:20;20.41;59.91
75387;DHT22;63966;47.914;22.266;2023-07-08T05:07:24;20.57;58.61
75387;DHT22;63966;47.914;22.266;2023-07-08T05:10:27;20.60;59.50
75387;DHT22;63966;47.914;22.266;2023-07-08T05:13:31;20.98;58.18
75387;DHT22;63966;47.914;22.266;2023-07-08T05:16:35;21.35;56.67
75387;DHT22;63966;47.914;22.266;2023-07-08T05:19:39;21.39;56.38
75387;DHT22;63966;47.914;22.266;2023-07-08T05:22:45;22.05;55.14
75387;DHT22;63966;47.914;22.266;2023-07-08T05:25:49;22.75;54.16
75387;DHT22;63966;47.914;22.266;2023-07-08T05:28:52;23.24;51.66
75387;DHT22;63966;47.914;22.266;2023-07-08T05:31:55;23.76;50.95
75387;DHT22;63966;47.914;22.266;2023-07-08T05:34:59;24.50;48.63
75387;DHT22;63966;47.914;22.266;2023-07-08T05:38:02;24.78;48.34
75387;DHT22;63966;47.914;22.266;2023-07-08T05:41:06;24.87;47.09
75387;DHT22;63966;47.914;22.266;2023-07-08T05:44:09;24.98;46.72
75387;DHT22;63966;47.914;22.266;2023-07-08T05:47:13;25.73;46.00
75387;DHT22;63966;47.914;22.266;2023-07-08T05:50:17;26.41;44.81
75387;DHT22;63966;47.914;22.266;2023-07-08T05:53:20;27.25;43.94
75387;DHT22;63966;47.914;22.266;2023-07-08T05:56:24;27.06;42.60
75387;DHT22;63966;47.914;22.266;2023-07-08T05:59:27;27.07;42.72
75387;DHT22;63966;47.914;22.266;2023-07-08T06:02:30;27.15;42.46
75387;DHT22;63966;47.914;22.266;2023-07-08T06:05:34;26.91;42.95
75387;DHT22;63966;47.914;22.266;2023-07-08T06:08:38;27.35;41.98
75387;DHT22;63966;47.914;22.266;2023-07-08T06:11:41;27.27;42.07
75387;DHT22;63966;47.914;22.266;2023-07-08T06:14:45;27.59;41.33
75387;DHT22;63966;47.914;22.266;2023-07-08T06:17:48;27.27;42.14
75387;DHT22;63966;47.914;22.266;2023-07-08T06:20:56;27.58;41.36
75387;DHT22;63966;47.914;22.266;2023-07-08T06:24:00;27.92;41.17
75387;DHT22;63966;47.914;22.266;2023-07-08T06:27:03;28.06;41.14
75387;DHT22;63966;47.914;22.266;2023-07-08T06:30:07;28.34;40.10
75387;DHT22;63966;47.914;22.266;2023-07-08T06:33:11;28.48;39.83
75387;DHT22;63966;47.914;22.266;2023-07-08T06:36:15;29.12;40.60
75387;DHT22;63966;47.914;22.266;2023-07-08T06:39:18;29.67;39.15
75387;DHT22;63966;47.914;22.266;2023-07-08T06:42:22;29.16;38.38
75387;DHT22;63966;47.914;22.266;2023-07-08T06:45:47;28.57;38.96
75387;DHT22;63966;47.914;22.266;2023-07-08T06:48:51;28.48;38.44
75387;DHT22;63966;47.914;22.266;2023-07-08T06:51:54;29.30;37.65
75387;DHT22;63966;47.914;22.266;2023-07-08T06:55:01;29.36;37.58
75387;DHT22;63966;47.914;22.266;2023-07-08T06:58:07;29.19;37.92
75387;DHT22;63966;47.914;22.266;2023-07-08T07:01:11;29.86;37.05
75387;DHT22;63966;47.914;22.266;2023-07-08T07:04:14;29.75;37.19
75387;DHT22;63966;47.914;22.266;2023-07-08T07:07:18;29.84;38.36
75387;DHT22;63966;47.914;22.266;2023-07-08T07:10:21;29.63;38.38
75387;DHT22;63966;47.914;22.266;2023-07-08T07:13:25;29.26;36.55
75387;DHT22;63966;47.914;22.266;2023-07-08T07:16:29;29.30;37.85
75387;DHT22;63966;47.914;22.266;2023-07-08T07:19:32;29.74;36.10
75387;DHT22;63966;47.914;22.266;2023-07-08T07:22:36;30.39;36.17
75387;DHT22;63966;47.914;22.266;2023-07-08T07:25:39;29.70;35.47
75387;DHT22;63966;47.914;22.266;2023-07-08T07:28:42;29.73;35.46
75387;DHT22;63966;47.914;22.266;2023-07-08T07:31:47;29.88;36.12
75387;DHT22;63966;47.914;22.266;2023-07-08T07:34:51;29.73;36.56
75387;DHT22;63966;47.914;22.266;2023-07-08T07:37:55;29.34;36.77
75387;DHT22;63966;47.914;22.266;2023-07-08T07:40:58;29.68;35.28
75387;DHT22;63966;47.914;22.266;2023-07-08T07:44:03;29.46;35.67
75387;DHT22;63966;47.914;22.266;2023-07-08T07:47:08;29.23;36.62
75387;DHT22;63966;47.914;22.266;2023-07-08T07:50:11;30.06;35.18
75387;DHT22;63966;47.914;22.266;2023-07-08T07:53:15;30.26;33.17
75387;DHT22;63966;47.914;22.266;2023-07-08T07:56:18;30.36;32.80
75387;DHT22;63966;47.914;22.266;2023-07-08T07:59:22;30.42;34.14
75387;DHT22;63966;47.914;22.266;2023-07-08T08:02:26;30.52;35.05
75387;DHT22;63966;47.914;22.266;2023-07-08T08:05:29;31.87;32.93
75387;DHT22;63966;47.914;22.266;2023-07-08T08:08:33;31.65;32.16
75387;DHT22;63966;47.914;22.266;2023-07-08T08:11:40;30.83;34.45
75387;DHT22;63966;47.914;22.266;2023-07-08T08:14:43;30.52;32.04
75387;DHT22;63966;47.914;22.266;2023-07-08T08:17:47;30.60;30.78
75387;DHT22;63966;47.914;22.266;2023-07-08T08:20:52;30.77;32.13
75387;DHT22;63966;47.914;22.266;2023-07-08T08:23:56;31.61;30.35
75387;DHT22;63966;47.914;22.266;2023-07-08T08:26:59;31.73;31.73
75387;DHT22;63966;47.914;22.266;2023-07-08T08:30:04;31.29;31.29
75387;DHT22;63966;47.914;22.266;2023-07-08T08:33:10;31.11;30.14
75387;DHT22;63966;47.914;22.266;2023-07-08T08:36:13;30.52;30.10
75387;DHT22;63966;47.914;22.266;2023-07-08T08:39:17;29.56;32.28
75387;DHT22;63966;47.914;22.266;2023-07-08T08:46:02;30.36;32.72
75387;DHT22;63966;47.914;22.266;2023-07-08T08:52:10;30.59;31.99
75387;DHT22;63966;47.914;22.266;2023-07-08T08:55:15;29.57;35.14
75387;DHT22;63966;47.914;22.266;2023-07-08T09:01:33;27.12;38.03
75387;DHT22;63966;47.914;22.266;2023-07-08T09:04:40;26.86;40.64
75387;DHT22;63966;47.914;22.266;2023-07-08T09:08:10;26.77;40.67
75387;DHT22;63966;47.914;22.266;2023-07-08T09:14:51;26.31;40.28
75387;DHT22;63966;47.914;22.266;2023-07-08T09:18:00;26.06;39.91
75387;DHT22;63966;47.914;22.266;2023-07-08T09:21:19;26.09;39.49
75387;DHT22;63966;47.914;22.266;2023-07-08T09:27:34;26.24;38.57
75387;DHT22;63966;47.914;22.266;2023-07-08T09:30:37;26.15;39.21
75387;DHT22;63966;47.914;22.266;2023-07-08T09:33:41;26.15;38.62
75387;DHT22;63966;47.914;22.266;2023-07-08T09:36:47;26.17;38.34
75387;DHT22;63966;47.914;22.266;2023-07-08T09:39:52;26.43;38.71
75387;DHT22;63966;47.914;22.266;2023-07-08T09:46:13;26.32;39.74
75387;DHT22;63966;47.914;22.266;2023-07-08T09:49:21;26.04;37.79
75387;DHT22;63966;47.914;22.266;2023-07-08T09:52:26;25.94;38.87
75387;DHT22;63966;47.914;22.266;2023-07-08T09:55:32;26.09;39.49
75387;DHT22;63966;47.914;22.266;2023-07-08T09:58:40;26.33;41.92
75387;DHT22;63966;47.914;22.266;2023-07-08T10:01:45;26.73;39.48
75387;DHT22;63966;47.914;22.266;2023-07-08T10:04:53;26.59;41.49
75387;DHT22;63966;47.914;22.266;2023-07-08T10:07:58;26.45;40.68
75387;DHT22;63966;47.914;22.266;2023-07-08T10:11:10;26.55;40.35
75387;DHT22;63966;47.914;22.266;2023-07-08T10:14:33;26.63;40.77
75387;DHT22;63966;47.914;22.266;2023-07-08T10:17:41;26.62;40.85
75387;DHT22;63966;47.914;22.266;2023-07-08T10:31:15;26.94;39.49
75387;DHT22;63966;47.914;22.266;2023-07-08T10:44:15;26.53;39.18
75387;DHT22;63966;47.914;22.266;2023-07-08T10:50:58;26.73;41.14
75387;DHT22;63966;47.914;22.266;2023-07-08T10:54:33;26.33;41.59
75387;DHT22;63966;47.914;22.266;2023-07-08T11:04:40;27.03;39.65
75387;DHT22;63966;47.914;22.266;2023-07-08T11:08:02;26.84;41.33
75387;DHT22;63966;47.914;22.266;2023-07-08T11:11:07;26.56;40.46
75387;DHT22;63966;47.914;22.266;2023-07-08T11:14:47;26.64;41.40
75387;DHT22;63966;47.914;22.266;2023-07-08T11:18:15;26.76;41.10
75387;DHT22;63966;47.914;22.266;2023-07-08T11:21:45;26.82;40.14
75387;DHT22;63966;47.914;22.266;2023-07-08T11:24:51;27.01;42.51
75387;DHT22;63966;47.914;22.266;2023-07-08T11:27:57;26.97;41.42
75387;DHT22;63966;47.914;22.266;2023-07-08T11:31:03;26.98;40.78
75387;DHT22;63966;47.914;22.266;2023-07-08T11:34:09;26.90;39.95
75387;DHT22;63966;47.914;22.266;2023-07-08T11:37:14;27.08;40.63
75387;DHT22;63966;47.914;22.266;2023-07-08T11:40:21;26.94;41.51
75387;DHT22;63966;47.914;22.266;2023-07-08T11:46:55;27.03;41.91
75387;DHT22;63966;47.914;22.266;2023-07-08T11:49:59;26.93;40.69
75387;DHT22;63966;47.914;22.266;2023-07-08T11:53:09;26.94;40.43
75387;DHT22;63966;47.914;22.266;2023-07-08T11:59:20;26.79;39.88
75387;DHT22;63966;47.914;22.266;2023-07-08T12:02:25;26.98;39.87
75387;DHT22;63966;47.914;22.266;2023-07-08T12:05:36;27.01;39.43
75387;DHT22;63966;47.914;22.266;2023-07-08T12:08:42;26.96;42.04
75387;DHT22;63966;47.914;22.266;2023-07-08T12:11:48;27.11;42.56
75387;DHT22;63966;47.914;22.266;2023-07-08T12:15:04;27.14;42.93
75387;DHT22;63966;47.914;22.266;2023-07-08T12:21:14;26.59;41.44
75387;DHT22;63966;47.914;22.266;2023-07-08T12:24:18;26.55;41.58
75387;DHT22;63966;47.914;22.266;2023-07-08T12:27:22;26.50;42.10
75387;DHT22;63966;47.914;22.266;2023-07-08T12:30:29;26.50;42.13
75387;DHT22;63966;47.914;22.266;2023-07-08T12:33:34;26.55;43.37
75387;DHT22;63966;47.914;22.266;2023-07-08T12:36:38;26.53;42.51
75387;DHT22;63966;47.914;22.266;2023-07-08T12:39:41;26.48;41.01
75387;DHT22;63966;47.914;22.266;2023-07-08T12:42:45;26.38;41.63
75387;DHT22;63966;47.914;22.266;2023-07-08T12:45:49;26.52;42.25
75387;DHT22;63966;47.914;22.266;2023-07-08T12:48:52;26.48;42.39
75387;DHT22;63966;47.914;22.266;2023-07-08T12:51:56;26.50;43.40
75387;DHT22;63966;47.914;22.266;2023-07-08T12:54:59;26.62;41.90
75387;DHT22;63966;47.914;22.266;2023-07-08T12:58:03;26.41;42.68
75387;DHT22;63966;47.914;22.266;2023-07-08T13:01:07;26.55;42.52
75387;DHT22;63966;47.914;22.266;2023-07-08T13:04:14;26.52;43.20
75387;DHT22;63966;47.914;22.266;2023-07-08T13:07:37;26.53;42.27
75387;DHT22;63966;47.914;22.266;2023-07-08T13:10:42;26.57;42.94
75387;DHT22;63966;47.914;22.266;2023-07-08T13:13:57;26.52;43.18
75387;DHT22;63966;47.914;22.266;2023-07-08T13:17:02;26.55;41.37
75387;DHT22;63966;47.914;22.266;2023-07-08T13:20:09;26.60;42.69
75387;DHT22;63966;47.914;22.266;2023-07-08T13:23:15;26.53;41.67
75387;DHT22;63966;47.914;22.266;2023-07-08T13:26:21;26.59;42.81
75387;DHT22;63966;47.914;22.266;2023-07-08T13:29:25;26.53;40.59
75387;DHT22;63966;47.914;22.266;2023-07-08T13:32:32;26.56;42.58
75387;DHT22;63966;47.914;22.266;2023-07-08T13:35:40;26.42;41.02
75387;DHT22;63966;47.914;22.266;2023-07-08T13:38:44;26.56;42.00
75387;DHT22;63966;47.914;22.266;2023-07-08T13:41:48;26.49;41.52
75387;DHT22;63966;47.914;22.266;2023-07-08T13:44:52;26.64;42.60
75387;DHT22;63966;47.914;22.266;2023-07-08T13:48:13;26.62;40.76
75387;DHT22;63966;47.914;22.266;2023-07-08T13:51:20;26.66;41.87
75387;DHT22;63966;47.914;22.266;2023-07-08T13:54:34;26.66;41.12
75387;DHT22;63966;47.914;22.266;2023-07-08T13:57:40;26.62;42.22
75387;DHT22;63966;47.914;22.266;2023-07-08T14:00:44;26.53;40.91
75387;DHT22;63966;47.914;22.266;2023-07-08T14:03:48;26.55;42.71
75387;DHT22;63966;47.914;22.266;2023-07-08T14:06:52;26.66;43.91
75387;DHT22;63966;47.914;22.266;2023-07-08T14:09:55;26.63;41.88
75387;DHT22;63966;47.914;22.266;2023-07-08T14:12:59;26.68;40.26
75387;DHT22;63966;47.914;22.266;2023-07-08T14:16:03;26.59;41.68
75387;DHT22;63966;47.914;22.266;2023-07-08T14:19:16;26.63;40.62
75387;DHT22;63966;47.914;22.266;2023-07-08T14:25:26;26.62;42.02
75387;DHT22;63966;47.914;22.266;2023-07-08T14:28:30;26.60;41.59
75387;DHT22;63966;47.914;22.266;2023-07-08T14:31:33;26.68;41.46
75387;DHT22;63966;47.914;22.266;2023-07-08T14:34:37;26.57;42.33
75387;DHT22;63966;47.914;22.266;2023-07-08T14:37:40;26.72;40.53
75387;DHT22;63966;47.914;22.266;2023-07-08T14:40:44;26.73;42.08
75387;DHT22;63966;47.914;22.266;2023-07-08T14:43:47;26.68;40.22
75387;DHT22;63966;47.914;22.266;2023-07-08T14:46:52;26.63;41.61
75387;DHT22;63966;47.914;22.266;2023-07-08T14:49:56;26.60;41.69
75387;DHT22;63966;47.914;22.266;2023-07-08T14:52:59;26.69;42.63
75387;DHT22;63966;47.914;22.266;2023-07-08T14:56:15;26.82;41.47
75387;DHT22;63966;47.914;22.266;2023-07-08T14:59:21;26.77;44.26
75387;DHT22;63966;47.914;22.266;2023-07-08T15:02:25;26.66;41.50
75387;DHT22;63966;47.914;22.266;2023-07-08T15:05:29;26.70;39.84
75387;DHT22;63966;47.914;22.266;2023-07-08T15:08:32;26.72;41.14
75387;DHT22;63966;47.914;22.266;2023-07-08T15:11:39;26.63;41.71
75387;DHT22;63966;47.914;22.266;2023-07-08T15:14:43;26.62;40.55
75387;DHT22;63966;47.914;22.266;2023-07-08T15:17:46;26.53;41.15
75387;DHT22;63966;47.914;22.266;2023-07-08T15:20:51;26.50;40.37
75387;DHT22;63966;47.914;22.266;2023-07-08T15:23:55;26.50;40.17
75387;DHT22;63966;47.914;22.266;2023-07-08T15:26:58;26.59;41.05
75387;DHT22;63966;47.914;22.266;2023-07-08T15:30:02;26.46;40.32
75387;DHT22;63966;47.914;22.266;2023-07-08T15:33:09;26.48;41.78
75387;DHT22;63966;47.914;22.266;2023-07-08T15:36:13;26.45;41.57
75387;DHT22;63966;47.914;22.266;2023-07-08T15:39:17;26.48;41.21
75387;DHT22;63966;47.914;22.266;2023-07-08T15:42:21;26.43;40.79
75387;DHT22;63966;47.914;22.266;2023-07-08T15:45:35;26.43;40.88
75387;DHT22;63966;47.914;22.266;2023-07-08T15:48:40;26.42;42.02
75387;DHT22;63966;47.914;22.266;2023-07-08T15:51:44;26.41;42.36
75387;DHT22;63966;47.914;22.266;2023-07-08T15:54:51;26.33;41.37
75387;DHT22;63966;47.914;22.266;2023-07-08T16:01:20;26.35;42.86
75387;DHT22;63966;47.914;22.266;2023-07-08T16:04:32;26.31;41.09
75387;DHT22;63966;47.914;22.266;2023-07-08T16:07:36;26.24;43.94
75387;DHT22;63966;47.914;22.266;2023-07-08T16:10:39;26.20;42.95
75387;DHT22;63966;47.914;22.266;2023-07-08T16:13:44;26.14;43.53
75387;DHT22;63966;47.914;22.266;2023-07-08T16:16:48;26.17;43.75
75387;DHT22;63966;47.914;22.266;2023-07-08T16:19:51;26.17;42.49
75387;DHT22;63966;47.914;22.266;2023-07-08T16:22:55;26.09;43.33
75387;DHT22;63966;47.914;22.266;2023-07-08T16:25:59;26.04;44.60
75387;DHT22;63966;47.914;22.266;2023-07-08T16:29:03;26.05;42.97
75387;DHT22;63966;47.914;22.266;2023-07-08T16:32:13;26.00;43.67
75387;DHT22;63966;47.914;22.266;2023-07-08T16:35:19;25.97;43.33
75387;DHT22;63966;47.914;22.266;2023-07-08T16:38:22;25.90;44.94
75387;DHT22;63966;47.914;22.266;2023-07-08T16:41:29;25.87;45.44
75387;DHT22;63966;47.914;22.266;2023-07-08T16:44:33;25.73;46.50
75387;DHT22;63966;47.914;22.266;2023-07-08T16:47:37;25.66;47.02
75387;DHT22;63966;47.914;22.266;2023-07-08T16:50:40;25.60;46.40
75387;DHT22;63966;47.914;22.266;2023-07-08T16:53:44;25.54;45.99
75387;DHT22;63966;47.914;22.266;2023-07-08T16:56:48;25.50;46.27
75387;DHT22;63966;47.914;22.266;2023-07-08T16:59:51;25.50;46.97
75387;DHT22;63966;47.914;22.266;2023-07-08T17:02:55;25.47;47.48
75387;DHT22;63966;47.914;22.266;2023-07-08T17:05:59;25.42;47.35
75387;DHT22;63966;47.914;22.266;2023-07-08T17:09:02;25.37;47.93
75387;DHT22;63966;47.914;22.266;2023-07-08T17:12:08;25.26;48.10
75387;DHT22;63966;47.914;22.266;2023-07-08T17:15:12;25.15;48.56
75387;DHT22;63966;47.914;22.266;2023-07-08T17:18:21;25.04;48.75
75387;DHT22;63966;47.914;22.266;2023-07-08T17:21:25;24.95;48.73
75387;DHT22;63966;47.914;22.266;2023-07-08T17:24:29;24.89;48.85
75387;DHT22;63966;47.914;22.266;2023-07-08T17:27:33;24.89;48.76
75387;DHT22;63966;47.914;22.266;2023-07-08T17:30:43;24.82;48.76
75387;DHT22;63966;47.914;22.266;2023-07-08T17:33:51;24.68;50.40
75387;DHT22;63966;47.914;22.266;2023-07-08T17:36:56;24.64;49.68
75387;DHT22;63966;47.914;22.266;2023-07-08T17:39:59;24.60;49.75
75387;DHT22;63966;47.914;22.266;2023-07-08T17:43:03;24.41;51.55
75387;DHT22;63966;47.914;22.266;2023-07-08T17:46:13;24.40;50.71
75387;DHT22;63966;47.914;22.266;2023-07-08T17:49:19;24.30;51.48
75387;DHT22;63966;47.914;22.266;2023-07-08T17:52:22;24.14;52.12
75387;DHT22;63966;47.914;22.266;2023-07-08T17:55:26;23.96;52.58
75387;DHT22;63966;47.914;22.266;2023-07-08T17:58:32;23.69;55.13
75387;DHT22;63966;47.914;22.266;2023-07-08T18:01:36;23.38;56.72
75387;DHT22;63966;47.914;22.266;2023-07-08T18:04:40;23.30;56.26
75387;DHT22;63966;47.914;22.266;2023-07-08T18:07:44;23.13;57.99
75387;DHT22;63966;47.914;22.266;2023-07-08T18:10:48;22.77;58.92
75387;DHT22;63966;47.914;22.266;2023-07-08T18:13:52;22.53;59.47
75387;DHT22;63966;47.914;22.266;2023-07-08T18:16:56;22.30;60.40
75387;DHT22;63966;47.914;22.266;2023-07-08T18:19:59;22.08;60.95
75387;DHT22;63966;47.914;22.266;2023-07-08T18:23:04;21.90;61.53
75387;DHT22;63966;47.914;22.266;2023-07-08T18:26:27;21.67;61.98
75387;DHT22;63966;47.914;22.266;2023-07-08T18:29:30;21.50;63.00
75387;DHT22;63966;47.914;22.266;2023-07-08T18:32:34;21.32;63.81
75387;DHT22;63966;47.914;22.266;2023-07-08T18:35:37;21.14;64.08
75387;DHT22;63966;47.914;22.266;2023-07-08T18:38:41;20.97;66.04
75387;DHT22;63966;47.914;22.266;2023-07-08T18:41:46;20.81;66.23
75387;DHT22;63966;47.914;22.266;2023-07-08T18:44:51;20.66;67.40
75387;DHT22;63966;47.914;22.266;2023-07-08T18:47:54;20.53;68.19
75387;DHT22;63966;47.914;22.266;2023-07-08T18:50:58;20.40;68.62
75387;DHT22;63966;47.914;22.266;2023-07-08T18:54:02;20.28;68.98
75387;DHT22;63966;47.914;22.266;2023-07-08T18:57:06;20.15;69.88
75387;DHT22;63966;47.914;22.266;2023-07-08T19:00:12;20.02;71.02
75387;DHT22;63966;47.914;22.266;2023-07-08T19:06:22;19.81;71.91
75387;DHT22;63966;47.914;22.266;2023-07-08T19:09:28;19.72;72.77
75387;DHT22;63966;47.914;22.266;2023-07-08T19:12:36;19.54;74.58
75387;DHT22;63966;47.914;22.266;2023-07-08T19:15:40;19.41;74.63
75387;DHT22;63966;47.914;22.266;2023-07-08T19:18:47;19.33;75.35
75387;DHT22;63966;47.914;22.266;2023-07-08T19:21:52;19.22;75.19
75387;DHT22;63966;47.914;22.266;2023-07-08T19:24:58;19.12;75.85
75387;DHT22;63966;47.914;22.266;2023-07-08T19:28:04;19.03;76.39
75387;DHT22;63966;47.914;22.266;2023-07-08T19:31:17;18.96;76.71
75387;DHT22;63966;47.914;22.266;2023-07-08T19:34:22;18.92;77.03
75387;DHT22;63966;47.914;22.266;2023-07-08T19:37:25;18.78;77.92
75387;DHT22;63966;47.914;22.266;2023-07-08T19:40:28;18.72;77.73
75387;DHT22;63966;47.914;22.266;2023-07-08T19:43:32;18.61;78.51
75387;DHT22;63966;47.914;22.266;2023-07-08T19:46:35;18.49;78.83
75387;DHT22;63966;47.914;22.266;2023-07-08T19:49:39;18.41;79.04
75387;DHT22;63966;47.914;22.266;2023-07-08T19:52:42;18.31;79.15
75387;DHT22;63966;47.914;22.266;2023-07-08T19:55:46;18.23;79.43
75387;DHT22;63966;47.914;22.266;2023-07-08T19:58:49;18.10;79.79
75387;DHT22;63966;47.914;22.266;2023-07-08T20:01:53;18.04;79.98
75387;DHT22;63966;47.914;22.266;2023-07-08T20:04:57;17.93;80.40
75387;DHT22;63966;47.914;22.266;2023-07-08T20:11:23;17.48;82.40
75387;DHT22;63966;47.914;22.266;2023-07-08T20:14:27;17.41;82.83
75387;DHT22;63966;47.914;22.266;2023-07-08T20:17:31;17.42;82.97
75387;DHT22;63966;47.914;22.266;2023-07-08T20:20:34;17.39;83.00
75387;DHT22;63966;47.914;22.266;2023-07-08T20:23:38;17.49;82.46
75387;DHT22;63966;47.914;22.266;2023-07-08T20:26:43;17.58;82.67
75387;DHT22;63966;47.914;22.266;2023-07-08T20:29:46;17.48;82.78